首页
METAR-TAF:

METAR-TAF

机场 :

楠迪, 斐濟

楠迪國際機場

纬度: 17-45S, 经度: 177-27E, 海拔: 13米

当前天气观测

该预报发布于18分钟前的13:00 UTC
风速4节,风向东转东南
温度 24°C
湿度 94%
气压 1012 hPa
能见度10公里或以上
少量云层高于3000英尺
散云层高于14000英尺

METAR: NFFN 171300Z 11004KT 9999 FEW030 SCT140 24/23 Q1012 NOSIG

时间: 02:18 (13:18 UTC)

预报

该预报发布于8小时和18分钟前的05:00 UTC
预报有效从17日的 06点(UTC)到 18日的 06点(UTC)
风速6节,风向东转东南
能见度10公里或以上
少量云层高于2500英尺
散云层高于4500英尺
多云层高于10000英尺
短暂存在
从 17日的 06点(UTC)到 17日的 09点(UTC)
能見度: 5000
少量云层高于1800英尺, 积雨云.
雷暴, 雨
成为
从 17日的 22点(UTC)到 17日的 24点(UTC)
风速12节,风向西
几率 30% :
短暂存在
从 18日的 02点(UTC)到 18日的 06点(UTC)
能見度: 5000
少量云层高于1800英尺, 积雨云.
雷暴, 雨
成为
从 18日的 04点(UTC)到 18日的 06点(UTC)
风速6节,风向

TAF: NFFN 170500Z 1706/1806 11006KT 9999 FEW025 SCT045 BKN100 TEMPO 1706/1709 5000 TSRA FEW018CB BECMG 1722/1724 28012KT PROB30 TEMPO 1802/1806 5000 TSRA FEW018CB BECMG 1804/1806 10006KT

超过4000个机场的气象观测和天气预报(METAR&TAF报告)。

可查询的气象台以黄色和红色小点在地图上表示。

将鼠标移到小点上方,可查看气象台名称。

然后点击查看天气观测和预报。

如需切换地图:点击带黑十字的绿色按钮放大地图;点击带横线的绿色按钮缩小地图;或者点击绿色箭头查看邻近地区的地图。


METAR-TAF: